Time;durP1;ratioP1;P1;durP2;ratioP2;P2;SDS_P1;SDS_P2;PMS_P1;PMS_P2;Temp;Humidity;BMP_temperature;BMP_pressure;BME280_temperature;BME280_humidity;BME280_pressure;Samples;Min_cycle;Max_cycle;Signal;HPM_P1;HPM_P2
2023/02/23 00:02:06;;;;;;;9.60;6.30;;;;;;;;;;105244;1254;62023;-63
2023/02/23 00:04:34;;;;;;;7.50;5.50;;;;;;;;;;105291;1249;61688;-63
2023/02/23 00:07:05;;;;;;;11.80;5.50;;;;;;;;;;105269;1252;61547;-63
2023/02/23 00:09:36;;;;;;;7.50;5.60;;;;;;;;;;105384;1254;61696;-63
2023/02/23 00:12:08;;;;;;;10.00;6.00;;;;;;;;;;105303;1260;61915;-63
2023/02/23 00:14:36;;;;;;;7.50;5.30;;;;;;;;;;105273;1254;61697;-64
2023/02/23 00:17:13;;;;;;;7.20;5.20;;;;;;;;;;105477;1254;61710;-63
2023/02/23 00:19:42;;;;;;;9.10;5.80;;;;;;;;;;105354;1257;61582;-64
2023/02/23 00:22:11;;;;;;;8.20;5.60;;;;;;;;;;105315;1253;61605;-63
2023/02/23 00:24:41;;;;;;;8.40;5.60;;;;;;;;;;105453;1253;61582;-63
2023/02/23 00:27:19;;;;;;;8.20;5.60;;;;;;;;;;105355;1248;61707;-63
2023/02/23 00:29:48;;;;;;;6.00;5.30;;;;;;;;;;105428;1258;62287;-63
2023/02/23 00:32:18;;;;;;;6.10;5.30;;;;;;;;;;105284;1257;62319;-63
2023/02/23 00:34:48;;;;;;;6.20;4.90;;;;;;;;;;105104;1249;61609;-63
2023/02/23 00:37:17;;;;;;;8.60;5.90;;;;;;;;;;105313;1257;61895;-63
2023/02/23 00:39:48;;;;;;;8.70;5.10;;;;;;;;;;105050;1263;61681;-63
2023/02/23 00:42:16;;;;;;;7.30;5.60;;;;;;;;;;105167;1248;61708;-63
2023/02/23 00:44:46;;;;;;;6.20;5.00;;;;;;;;;;105336;1263;61579;-63
2023/02/23 00:47:15;;;;;;;7.90;5.10;;;;;;;;;;105313;1263;61691;-63
2023/02/23 00:49:43;;;;;;;7.70;4.90;;;;;;;;;;105222;1247;61714;-63
2023/02/23 00:52:13;;;;;;;7.10;4.90;;;;;;;;;;105224;1263;61467;-63
2023/02/23 00:54:42;;;;;;;5.60;4.80;;;;;;;;;;105298;1269;61717;-63
2023/02/23 00:57:11;;;;;;;6.20;4.80;;;;;;;;;;105084;1253;61683;-63
2023/02/23 00:59:39;;;;;;;5.30;4.80;;;;;;;;;;105286;1260;62991;-64
2023/02/23 01:02:07;;;;;;;8.40;5.10;;;;;;;;;;105430;1256;61719;-63
2023/02/23 01:04:35;;;;;;;6.90;5.00;;;;;;;;;;105199;1267;61288;-63
2023/02/23 01:07:05;;;;;;;5.40;4.80;;;;;;;;;;105101;1254;61713;-62
2023/02/23 01:09:33;;;;;;;7.30;5.00;;;;;;;;;;104949;1253;61707;-62
2023/02/23 01:12:06;;;;;;;10.30;5.00;;;;;;;;;;105229;1255;61638;-62
2023/02/23 01:14:36;;;;;;;7.50;4.70;;;;;;;;;;105056;1254;61724;-62
2023/02/23 01:17:04;;;;;;;7.60;5.20;;;;;;;;;;105181;1254;61823;-62
2023/02/23 01:19:33;;;;;;;6.60;4.80;;;;;;;;;;105221;1257;61752;-63
2023/02/23 01:22:03;;;;;;;6.50;4.70;;;;;;;;;;105250;1261;61572;-62
2023/02/23 01:24:31;;;;;;;7.30;4.80;;;;;;;;;;104930;1253;61704;-63
2023/02/23 01:27:04;;;;;;;7.20;5.30;;;;;;;;;;105189;1251;61659;-63
2023/02/23 01:29:33;;;;;;;9.30;6.00;;;;;;;;;;104888;1253;61736;-62
2023/02/23 01:32:01;;;;;;;7.70;5.60;;;;;;;;;;105248;1250;61755;-62
2023/02/23 01:34:37;;;;;;;10.00;5.70;;;;;;;;;;105324;1254;61698;-62
2023/02/23 01:37:07;;;;;;;7.90;5.70;;;;;;;;;;105117;1263;62257;-62
2023/02/23 01:39:35;;;;;;;7.90;5.50;;;;;;;;;;108712;1251;61636;-63
2023/02/23 01:42:24;;;;;;;7.90;5.10;;;;;;;;;;107593;1252;61730;-63
2023/02/23 01:44:54;;;;;;;9.30;6.00;;;;;;;;;;105665;1249;61681;-63
2023/02/23 01:47:23;;;;;;;8.30;5.50;;;;;;;;;;105079;1254;61573;-62
2023/02/23 01:49:51;;;;;;;10.60;6.00;;;;;;;;;;105271;1263;61114;-62
2023/02/23 01:52:19;;;;;;;7.60;5.50;;;;;;;;;;105318;1260;62076;-62
2023/02/23 01:54:50;;;;;;;6.80;5.10;;;;;;;;;;105372;1260;61908;-62
2023/02/23 01:57:23;;;;;;;8.90;5.70;;;;;;;;;;105059;1253;61746;-61
2023/02/23 01:59:53;;;;;;;9.20;6.30;;;;;;;;;;105177;1253;60950;-64
2023/02/23 02:02:31;;;;;;;8.50;5.80;;;;;;;;;;105354;1250;61685;-63
2023/02/23 02:05:01;;;;;;;8.60;5.80;;;;;;;;;;105208;1250;61688;-63
2023/02/23 02:07:30;;;;;;;10.50;6.10;;;;;;;;;;105172;1267;61136;-63
2023/02/23 02:12:38;;;;;;;9.10;6.00;;;;;;;;;;104919;1248;61700;-63
2023/02/23 02:15:07;;;;;;;8.60;5.50;;;;;;;;;;105008;1271;61612;-63
2023/02/23 02:17:38;;;;;;;10.60;5.60;;;;;;;;;;105301;1267;62129;-63
2023/02/23 02:20:13;;;;;;;8.40;6.10;;;;;;;;;;105459;1254;61697;-63
2023/02/23 02:22:44;;;;;;;8.20;5.30;;;;;;;;;;105151;1264;306062;-63
2023/02/23 02:25:59;;;;;;;10.60;6.00;;;;;;;;;;101937;1286;600590;-64
2023/02/23 02:28:42;;;;;;;11.20;6.20;;;;;;;;;;104233;1261;60269;-65
2023/02/23 02:31:35;;;;;;;8.90;5.50;;;;;;;;;;104308;1260;60288;-63
2023/02/23 02:34:23;;;;;;;10.10;6.20;;;;;;;;;;104187;1265;60278;-63
2023/02/23 02:37:10;;;;;;;7.70;5.60;;;;;;;;;;104479;1260;60150;-61
2023/02/23 02:39:52;;;;;;;8.90;5.90;;;;;;;;;;106695;1259;277365;-62
2023/02/23 02:42:24;;;;;;;7.50;5.10;;;;;;;;;;104320;1264;60156;-62
2023/02/23 02:44:57;;;;;;;7.50;5.70;;;;;;;;;;104269;1262;60297;-61
2023/02/23 02:47:35;;;;;;;10.60;6.00;;;;;;;;;;104275;1259;60182;-61
2023/02/23 02:50:03;;;;;;;8.30;6.40;;;;;;;;;;104398;1264;60213;-62
2023/02/23 02:52:34;;;;;;;7.70;6.10;;;;;;;;;;104370;1261;60899;-61
2023/02/23 02:55:11;;;;;;;9.50;6.00;;;;;;;;;;104360;1270;60954;-61
2023/02/23 02:57:40;;;;;;;7.80;6.00;;;;;;;;;;104284;1260;61009;-62
2023/02/23 04:17:38;;;;;;;9.50;6.10;;;;;;;;;;105257;1264;60873;-62
2023/02/23 04:20:07;;;;;;;8.50;6.10;;;;;;;;;;105415;1251;60866;-61
2023/02/23 04:22:35;;;;;;;8.20;6.30;;;;;;;;;;105309;1247;60952;-62
2023/02/23 04:25:05;;;;;;;9.70;7.20;;;;;;;;;;105374;1248;60776;-62
2023/02/23 04:27:34;;;;;;;9.00;6.40;;;;;;;;;;105501;1250;60872;-61
2023/02/23 04:30:03;;;;;;;11.30;6.70;;;;;;;;;;105496;1252;62128;-61
2023/02/23 04:32:35;;;;;;;11.00;6.60;;;;;;;;;;105287;1262;60798;-61
2023/02/23 04:35:04;;;;;;;11.00;7.00;;;;;;;;;;105403;1270;61624;-62
2023/02/23 04:37:32;;;;;;;9.00;6.10;;;;;;;;;;105363;1253;60741;-61
2023/02/23 04:40:01;;;;;;;10.00;6.40;;;;;;;;;;105311;1247;60910;-62
2023/02/23 04:42:29;;;;;;;7.60;5.60;;;;;;;;;;105378;1250;60966;-61
2023/02/23 04:44:58;;;;;;;8.00;6.10;;;;;;;;;;105306;1263;60959;-62
2023/02/23 04:47:26;;;;;;;10.60;6.70;;;;;;;;;;105351;1266;60732;-61
2023/02/23 04:49:54;;;;;;;9.20;6.10;;;;;;;;;;105379;1250;61399;-61
2023/02/23 04:52:23;;;;;;;11.20;6.90;;;;;;;;;;105337;1253;60761;-61
2023/02/23 04:54:54;;;;;;;8.50;5.80;;;;;;;;;;105440;1252;60949;-61
2023/02/23 04:57:22;;;;;;;8.70;5.60;;;;;;;;;;105435;1250;61209;-62
2023/02/23 04:59:52;;;;;;;10.60;6.70;;;;;;;;;;105282;1253;60746;-61
2023/02/23 05:02:20;;;;;;;9.20;6.10;;;;;;;;;;105402;1250;60794;-62
2023/02/23 05:04:55;;;;;;;9.00;6.30;;;;;;;;;;105438;1253;60881;-62
2023/02/23 05:07:23;;;;;;;9.20;6.40;;;;;;;;;;105306;1260;60276;-63
2023/02/23 05:09:52;;;;;;;10.90;6.90;;;;;;;;;;105408;1248;60996;-63
2023/02/23 05:12:20;;;;;;;14.10;6.60;;;;;;;;;;105390;1252;60882;-62
2023/02/23 05:14:48;;;;;;;9.10;6.50;;;;;;;;;;105436;1248;61123;-62
2023/02/23 05:17:21;;;;;;;10.60;7.20;;;;;;;;;;105308;1260;60764;-64
2023/02/23 05:19:49;;;;;;;12.00;7.60;;;;;;;;;;105251;1248;60864;-63
2023/02/23 05:22:18;;;;;;;11.30;7.40;;;;;;;;;;105370;1267;60722;-63
2023/02/23 05:24:46;;;;;;;13.00;8.00;;;;;;;;;;105534;1250;60825;-63
2023/02/23 05:27:14;;;;;;;14.50;8.60;;;;;;;;;;105458;1260;60756;-63
2023/02/23 05:29:43;;;;;;;14.00;8.20;;;;;;;;;;105423;1249;61231;-64
2023/02/23 05:32:11;;;;;;;13.90;8.70;;;;;;;;;;105477;1251;60866;-63
2023/02/23 05:34:40;;;;;;;13.60;9.00;;;;;;;;;;105513;1248;60888;-62
2023/02/23 05:37:09;;;;;;;17.40;9.20;;;;;;;;;;105325;1248;60865;-62
2023/02/23 05:39:37;;;;;;;16.10;9.30;;;;;;;;;;105493;1251;60876;-62
2023/02/23 05:42:06;;;;;;;16.60;10.20;;;;;;;;;;105513;1253;61074;-61
2023/02/23 05:44:35;;;;;;;16.10;8.60;;;;;;;;;;105512;1252;60911;-60
2023/02/23 05:47:03;;;;;;;14.90;8.30;;;;;;;;;;105418;1247;60869;-63
2023/02/23 05:49:35;;;;;;;16.80;8.50;;;;;;;;;;105529;1250;60734;-63
2023/02/23 05:52:04;;;;;;;14.90;8.30;;;;;;;;;;105394;1264;60744;-62
2023/02/23 05:54:32;;;;;;;12.20;8.10;;;;;;;;;;105520;1250;60753;-66
2023/02/23 05:57:00;;;;;;;14.70;8.30;;;;;;;;;;105395;1247;60865;-65
2023/02/23 05:59:29;;;;;;;12.20;8.30;;;;;;;;;;105364;1257;61154;-63
2023/02/23 06:01:58;;;;;;;13.20;7.50;;;;;;;;;;105539;1250;60758;-64
2023/02/23 06:04:26;;;;;;;12.60;8.00;;;;;;;;;;105501;1249;60806;-64
2023/02/23 06:06:54;;;;;;;13.10;7.90;;;;;;;;;;105346;1260;60854;-61
2023/02/23 06:09:26;;;;;;;16.20;8.30;;;;;;;;;;105471;1248;60926;-63
2023/02/23 06:11:54;;;;;;;10.00;7.40;;;;;;;;;;105585;1248;60904;-65
2023/02/23 06:14:22;;;;;;;11.80;8.30;;;;;;;;;;105425;1250;61934;-62
2023/02/23 06:16:51;;;;;;;14.10;7.90;;;;;;;;;;105020;1248;60849;-62
2023/02/23 06:19:20;;;;;;;12.30;7.30;;;;;;;;;;105420;1250;60865;-63
2023/02/23 06:21:49;;;;;;;13.00;7.40;;;;;;;;;;105501;1252;60842;-60
2023/02/23 06:24:18;;;;;;;10.80;7.40;;;;;;;;;;105443;1255;60860;-61
2023/02/23 06:26:46;;;;;;;12.50;7.70;;;;;;;;;;105515;1251;60836;-61
2023/02/23 06:29:15;;;;;;;12.80;7.50;;;;;;;;;;105530;1260;60870;-61
2023/02/23 06:31:43;;;;;;;11.20;7.20;;;;;;;;;;105387;1249;60882;-63
2023/02/23 06:34:12;;;;;;;13.40;6.60;;;;;;;;;;105610;1250;60757;-63
2023/02/23 06:36:40;;;;;;;12.20;7.30;;;;;;;;;;105094;1260;60349;-62
2023/02/23 06:39:12;;;;;;;11.30;7.20;;;;;;;;;;105454;1263;60774;-62
2023/02/23 06:41:42;;;;;;;11.70;7.50;;;;;;;;;;105372;1246;60851;-63
2023/02/23 06:44:10;;;;;;;10.90;6.60;;;;;;;;;;109114;1248;59468;-62
2023/02/23 06:46:39;;;;;;;9.40;6.60;;;;;;;;;;106033;1248;61664;-63
2023/02/23 06:49:09;;;;;;;12.10;7.60;;;;;;;;;;105541;1250;61777;-61
2023/02/23 06:51:38;;;;;;;10.40;6.80;;;;;;;;;;105878;1248;61704;-62
2023/02/23 06:54:07;;;;;;;10.70;6.60;;;;;;;;;;105626;1250;61682;-62
2023/02/23 06:56:36;;;;;;;9.40;6.80;;;;;;;;;;105721;1252;61716;-63
2023/02/23 06:59:04;;;;;;;10.40;7.20;;;;;;;;;;105426;1250;61714;-63
2023/02/23 07:01:34;;;;;;;12.00;7.40;;;;;;;;;;105564;1249;61771;-73
2023/02/23 07:04:04;;;;;;;11.00;6.90;;;;;;;;;;105631;1247;61694;-71
2023/02/23 07:06:32;;;;;;;10.40;7.20;;;;;;;;;;105570;1248;61611;-69
2023/02/23 07:09:01;;;;;;;10.20;7.00;;;;;;;;;;105361;1248;61689;-71
2023/02/23 07:11:29;;;;;;;10.70;7.50;;;;;;;;;;105620;1252;61735;-68
2023/02/23 07:14:00;;;;;;;12.80;7.90;;;;;;;;;;105708;1248;61662;-68
2023/02/23 07:16:29;;;;;;;14.20;7.70;;;;;;;;;;105516;1251;61438;-68
2023/02/23 07:18:57;;;;;;;11.90;7.60;;;;;;;;;;105535;1248;61691;-68
2023/02/23 07:21:26;;;;;;;14.60;8.30;;;;;;;;;;105658;1250;61755;-68
2023/02/23 07:23:54;;;;;;;13.40;8.00;;;;;;;;;;105525;1254;61755;-69
2023/02/23 07:26:23;;;;;;;14.80;8.10;;;;;;;;;;105410;1250;61761;-70
2023/02/23 07:28:51;;;;;;;12.00;7.10;;;;;;;;;;105381;1252;61584;-70
2023/02/23 07:31:23;;;;;;;19.10;7.90;;;;;;;;;;105437;1260;61589;-70
2023/02/23 07:33:53;;;;;;;14.60;9.00;;;;;;;;;;105618;1250;61558;-69
2023/02/23 07:36:22;;;;;;;14.30;8.80;;;;;;;;;;105554;1249;61684;-71
2023/02/23 07:38:50;;;;;;;13.30;8.30;;;;;;;;;;105614;1257;61591;-71
2023/02/23 07:41:18;;;;;;;12.00;7.60;;;;;;;;;;105414;1253;61592;-70
2023/02/23 07:43:48;;;;;;;16.60;8.10;;;;;;;;;;105540;1246;61692;-70
2023/02/23 07:46:16;;;;;;;15.40;7.80;;;;;;;;;;105212;1248;61706;-70
2023/02/23 07:48:44;;;;;;;12.80;7.10;;;;;;;;;;105587;1248;62076;-67
2023/02/23 07:51:14;;;;;;;11.40;7.80;;;;;;;;;;105712;1250;61669;-68
2023/02/23 07:53:42;;;;;;;11.10;6.70;;;;;;;;;;105586;1260;61685;-68
2023/02/23 07:56:11;;;;;;;11.30;7.60;;;;;;;;;;105668;1248;61557;-70
2023/02/23 07:58:42;;;;;;;12.80;6.70;;;;;;;;;;106005;1248;61598;-61
2023/02/23 08:01:11;;;;;;;13.80;7.40;;;;;;;;;;105769;1250;61654;-61
2023/02/23 08:03:39;;;;;;;9.80;6.60;;;;;;;;;;105505;1248;61694;-60
2023/02/23 08:06:08;;;;;;;13.50;7.60;;;;;;;;;;105580;1261;61657;-61
2023/02/23 08:08:36;;;;;;;10.30;7.10;;;;;;;;;;105504;1253;61585;-60
2023/02/23 08:11:04;;;;;;;10.10;7.00;;;;;;;;;;105397;1260;61676;-60
2023/02/23 08:13:36;;;;;;;10.10;7.10;;;;;;;;;;105764;1251;61713;-62
2023/02/23 08:16:04;;;;;;;11.30;7.00;;;;;;;;;;105801;1248;62275;-60
2023/02/23 08:18:34;;;;;;;11.80;8.00;;;;;;;;;;105759;1248;61679;-61
2023/02/23 08:21:03;;;;;;;12.40;7.00;;;;;;;;;;105526;1247;61686;-62
2023/02/23 08:23:31;;;;;;;9.60;7.40;;;;;;;;;;105118;1252;61698;-61
2023/02/23 08:26:01;;;;;;;11.10;7.30;;;;;;;;;;105234;1255;61734;-62
2023/02/23 08:28:32;;;;;;;10.60;6.60;;;;;;;;;;105260;1253;61695;-61
2023/02/23 08:31:01;;;;;;;10.90;7.10;;;;;;;;;;105405;1251;61688;-61
2023/02/23 08:33:30;;;;;;;11.30;7.30;;;;;;;;;;105271;1251;60978;-61
2023/02/23 08:36:01;;;;;;;12.30;7.60;;;;;;;;;;105066;1253;61783;-62
2023/02/23 08:38:30;;;;;;;11.10;6.30;;;;;;;;;;105142;1261;61712;-62
2023/02/23 08:41:02;;;;;;;12.60;7.90;;;;;;;;;;105046;1266;61498;-62
2023/02/23 08:43:31;;;;;;;12.20;6.90;;;;;;;;;;107005;1249;61690;-59
2023/02/23 08:45:59;;;;;;;12.50;7.40;;;;;;;;;;108395;1251;61694;-59
2023/02/23 08:48:28;;;;;;;13.60;6.70;;;;;;;;;;105827;1250;62065;-60
2023/02/23 08:50:57;;;;;;;12.70;7.60;;;;;;;;;;106194;1251;61698;-59
2023/02/23 08:53:26;;;;;;;9.80;7.40;;;;;;;;;;105919;1251;61742;-60
2023/02/23 08:55:55;;;;;;;13.20;7.00;;;;;;;;;;105512;1251;61602;-61
2023/02/23 08:58:23;;;;;;;11.20;7.00;;;;;;;;;;105334;1254;61697;-66
2023/02/23 09:00:52;;;;;;;10.40;6.70;;;;;;;;;;105820;1254;61687;-64
2023/02/23 09:03:21;;;;;;;9.90;7.10;;;;;;;;;;105548;1251;61423;-67
2023/02/23 09:05:50;;;;;;;11.60;7.10;;;;;;;;;;105391;1263;61716;-62
2023/02/23 09:08:18;;;;;;;11.40;6.90;;;;;;;;;;105685;1251;62019;-65
2023/02/23 09:10:47;;;;;;;9.30;6.60;;;;;;;;;;105257;1251;61655;-65
2023/02/23 09:13:16;;;;;;;11.70;7.70;;;;;;;;;;105554;1251;61637;-64
2023/02/23 09:15:46;;;;;;;10.70;6.80;;;;;;;;;;105676;1254;61794;-64
2023/02/23 09:18:16;;;;;;;11.20;6.80;;;;;;;;;;105370;1251;61701;-64
2023/02/23 09:20:45;;;;;;;8.70;6.80;;;;;;;;;;105572;1253;61935;-66
2023/02/23 09:23:14;;;;;;;11.80;6.60;;;;;;;;;;105364;1252;61694;-64
2023/02/23 09:25:43;;;;;;;10.90;7.00;;;;;;;;;;105170;1251;61665;-66
2023/02/23 09:28:12;;;;;;;8.40;6.30;;;;;;;;;;105280;1249;61727;-65
2023/02/23 09:30:40;;;;;;;9.10;6.10;;;;;;;;;;105385;1251;61692;-65
2023/02/23 09:33:09;;;;;;;8.00;5.80;;;;;;;;;;105502;1251;61654;-65
2023/02/23 09:35:38;;;;;;;11.20;6.30;;;;;;;;;;105644;1254;61656;-66
2023/02/23 09:38:06;;;;;;;9.90;6.20;;;;;;;;;;107420;1250;61637;-66
2023/02/23 09:40:48;;;;;;;8.80;6.40;;;;;;;;;;105889;1253;61761;-66
2023/02/23 09:43:34;;;;;;;8.30;5.90;;;;;;;;;;107425;1249;61591;-67
2023/02/23 09:46:07;;;;;;;11.40;6.80;;;;;;;;;;108991;1248;59572;-67
2023/02/23 09:48:36;;;;;;;9.60;6.60;;;;;;;;;;108963;1249;61097;-64
2023/02/23 09:51:05;;;;;;;10.20;6.60;;;;;;;;;;109005;1251;59703;-63
2023/02/23 09:53:34;;;;;;;8.80;6.10;;;;;;;;;;107591;1250;61681;-65
2023/02/23 09:56:16;;;;;;;11.20;7.50;;;;;;;;;;105998;1251;62385;-69
2023/02/23 09:58:46;;;;;;;7.90;5.80;;;;;;;;;;105618;1249;61694;-66
2023/02/23 10:01:15;;;;;;;8.50;5.90;;;;;;;;;;105424;1250;61856;-66
2023/02/23 10:03:56;;;;;;;10.90;6.60;;;;;;;;;;105577;1253;61714;-68
2023/02/23 10:06:25;;;;;;;8.40;6.10;;;;;;;;;;105120;1250;61714;-67
2023/02/23 10:09:13;;;;;;;9.70;6.50;;;;;;;;;;105044;1253;60968;-66
2023/02/23 10:11:43;;;;;;;6.20;4.30;;;;;;;;;;105325;1251;61692;-67
2023/02/23 10:14:31;;;;;;;9.50;5.70;;;;;;;;;;105476;1250;61609;-66
2023/02/23 10:17:17;;;;;;;9.20;5.80;;;;;;;;;;105373;1256;61688;-67
2023/02/23 10:20:05;;;;;;;9.80;5.40;;;;;;;;;;105209;1254;61698;-66
2023/02/23 10:22:33;;;;;;;7.10;5.50;;;;;;;;;;105032;1248;61813;-70
2023/02/23 10:25:03;;;;;;;9.40;5.30;;;;;;;;;;105384;1250;61609;-66
2023/02/23 10:27:36;;;;;;;14.70;7.00;;;;;;;;;;105295;1267;61713;-65
2023/02/23 10:30:12;;;;;;;8.90;6.10;;;;;;;;;;105487;1253;61675;-66
2023/02/23 10:32:44;;;;;;;7.90;6.00;;;;;;;;;;105360;1251;61781;-67
2023/02/23 10:35:19;;;;;;;7.80;5.70;;;;;;;;;;105328;1253;61084;-65
2023/02/23 10:37:48;;;;;;;10.90;5.20;;;;;;;;;;105160;1253;61765;-65
2023/02/23 10:40:17;;;;;;;7.40;5.30;;;;;;;;;;105522;1251;61797;-66
2023/02/23 10:42:48;;;;;;;8.00;6.00;;;;;;;;;;105289;1251;61706;-67
2023/02/23 10:45:22;;;;;;;8.30;5.90;;;;;;;;;;105500;1249;62362;-67
2023/02/23 10:48:00;;;;;;;9.70;5.30;;;;;;;;;;105302;1254;61775;-66
2023/02/23 10:50:31;;;;;;;9.90;5.50;;;;;;;;;;105542;1252;61563;-64
2023/02/23 10:53:21;;;;;;;8.50;5.70;;;;;;;;;;105079;1272;61701;-67
2023/02/23 10:55:59;;;;;;;7.70;5.20;;;;;;;;;;105747;1253;61678;-67
2023/02/23 10:58:28;;;;;;;9.40;5.30;;;;;;;;;;105483;1249;61682;-67
2023/02/23 11:01:00;;;;;;;8.50;5.60;;;;;;;;;;105557;1250;61688;-65
2023/02/23 11:03:31;;;;;;;8.80;6.30;;;;;;;;;;105325;1265;61103;-66
2023/02/23 11:06:02;;;;;;;8.40;5.40;;;;;;;;;;105642;1253;60981;-64
2023/02/23 11:08:31;;;;;;;7.80;5.50;;;;;;;;;;105469;1250;61666;-66
2023/02/23 11:10:59;;;;;;;9.00;5.50;;;;;;;;;;105336;1253;61629;-65
2023/02/23 11:13:28;;;;;;;11.20;6.70;;;;;;;;;;105372;1250;61699;-66
2023/02/23 11:16:01;;;;;;;9.50;6.30;;;;;;;;;;105469;1251;61612;-66
2023/02/23 11:18:32;;;;;;;10.20;6.80;;;;;;;;;;105533;1250;61791;-65
2023/02/23 11:21:01;;;;;;;8.30;6.80;;;;;;;;;;105661;1250;63136;-68
2023/02/23 11:23:33;;;;;;;8.80;7.30;;;;;;;;;;105380;1251;61707;-63
2023/02/23 11:26:03;;;;;;;12.10;7.30;;;;;;;;;;105308;1265;61682;-65
2023/02/23 11:28:32;;;;;;;9.00;7.30;;;;;;;;;;106153;1251;61769;-65
2023/02/23 11:31:08;;;;;;;10.30;7.40;;;;;;;;;;105394;1253;61461;-66
2023/02/23 11:33:37;;;;;;;9.10;6.90;;;;;;;;;;105230;1252;61675;-66
2023/02/23 11:36:16;;;;;;;10.70;6.80;;;;;;;;;;105491;1253;61768;-65
2023/02/23 11:38:46;;;;;;;11.60;7.30;;;;;;;;;;105381;1252;61712;-64
2023/02/23 11:41:19;;;;;;;10.20;7.60;;;;;;;;;;105590;1251;61676;-64
2023/02/23 11:43:49;;;;;;;9.90;7.40;;;;;;;;;;107259;1249;60728;-66
2023/02/23 11:46:20;;;;;;;10.00;7.60;;;;;;;;;;105551;1253;61704;-65
2023/02/23 11:48:49;;;;;;;11.90;7.30;;;;;;;;;;105320;1265;61695;-67
2023/02/23 11:51:25;;;;;;;11.60;7.10;;;;;;;;;;105303;1259;61676;-64
2023/02/23 11:53:53;;;;;;;10.40;6.70;;;;;;;;;;105475;1253;61547;-67
2023/02/23 11:56:24;;;;;;;9.30;6.80;;;;;;;;;;105361;1250;61098;-66
2023/02/23 11:58:57;;;;;;;9.90;6.90;;;;;;;;;;105748;1249;61700;-65
2023/02/23 12:01:35;;;;;;;10.70;7.20;;;;;;;;;;105350;1253;61627;-63
2023/02/23 12:04:03;;;;;;;10.10;7.20;;;;;;;;;;105101;1253;61697;-64
2023/02/23 12:06:36;;;;;;;10.00;7.70;;;;;;;;;;105130;1254;61568;-67
2023/02/23 12:09:08;;;;;;;12.60;7.40;;;;;;;;;;105227;1253;61641;-66
2023/02/23 12:11:38;;;;;;;9.00;6.50;;;;;;;;;;105342;1250;61719;-63
2023/02/23 12:14:13;;;;;;;9.20;7.30;;;;;;;;;;105337;1253;61728;-64
2023/02/23 12:16:50;;;;;;;12.70;6.90;;;;;;;;;;105299;1250;61762;-63
2023/02/23 12:19:27;;;;;;;7.50;5.90;;;;;;;;;;105220;1248;61678;-62
2023/02/23 12:21:59;;;;;;;6.60;5.50;;;;;;;;;;105060;1253;61681;-62
2023/02/23 12:24:31;;;;;;;10.20;6.90;;;;;;;;;;105411;1251;61710;-63
2023/02/23 12:27:18;;;;;;;9.30;7.30;;;;;;;;;;105138;1253;61701;-63
2023/02/23 12:29:49;;;;;;;8.90;6.80;;;;;;;;;;105155;1249;61665;-63
2023/02/23 12:32:20;;;;;;;10.00;6.90;;;;;;;;;;105481;1251;61583;-66
2023/02/23 12:34:55;;;;;;;11.80;7.20;;;;;;;;;;105445;1249;61586;-69
2023/02/23 12:37:26;;;;;;;8.80;7.50;;;;;;;;;;105353;1251;61743;-65
2023/02/23 12:40:02;;;;;;;10.10;8.10;;;;;;;;;;105135;1264;61585;-65
2023/02/23 12:42:36;;;;;;;11.40;7.70;;;;;;;;;;105620;1253;61777;-66
2023/02/23 12:45:12;;;;;;;11.60;7.80;;;;;;;;;;105595;1253;61596;-64
2023/02/23 12:47:43;;;;;;;9.30;8.10;;;;;;;;;;105385;1250;61590;-65
2023/02/23 12:50:22;;;;;;;11.90;6.90;;;;;;;;;;105143;1250;61722;-65
2023/02/23 12:52:52;;;;;;;9.10;7.40;;;;;;;;;;105287;1253;61696;-64
2023/02/23 12:55:25;;;;;;;10.30;7.00;;;;;;;;;;105201;1251;61701;-65
2023/02/23 12:57:57;;;;;;;11.30;7.50;;;;;;;;;;105176;1249;61678;-65
2023/02/23 13:00:42;;;;;;;9.10;6.80;;;;;;;;;;104836;1266;62298;-63
2023/02/23 13:03:29;;;;;;;7.50;6.50;;;;;;;;;;105120;1251;61698;-64
2023/02/23 13:06:00;;;;;;;10.00;6.80;;;;;;;;;;105258;1251;62260;-63
2023/02/23 13:08:29;;;;;;;10.00;6.60;;;;;;;;;;105598;1250;61676;-64
2023/02/23 13:11:02;;;;;;;9.50;7.20;;;;;;;;;;105840;1251;62410;-65
2023/02/23 13:13:55;;;;;;;8.20;6.90;;;;;;;;;;105690;1250;61679;-65
2023/02/23 13:16:33;;;;;;;9.00;6.80;;;;;;;;;;105627;1249;61682;-69
2023/02/23 13:19:05;;;;;;;9.80;7.10;;;;;;;;;;105169;1254;62261;-65
2023/02/23 13:21:54;;;;;;;9.70;7.00;;;;;;;;;;105445;1250;61661;-64
2023/02/23 13:24:24;;;;;;;9.70;6.90;;;;;;;;;;105079;1267;61455;-63
2023/02/23 13:27:03;;;;;;;9.70;6.90;;;;;;;;;;105382;1260;62166;-67
2023/02/23 13:29:33;;;;;;;10.40;6.80;;;;;;;;;;105444;1248;61797;-62
2023/02/23 13:32:01;;;;;;;10.00;6.70;;;;;;;;;;104666;1254;61706;-63
2023/02/23 13:34:32;;;;;;;10.10;6.90;;;;;;;;;;105200;1250;62018;-63
2023/02/23 13:37:02;;;;;;;8.60;6.90;;;;;;;;;;105213;1252;61619;-64
2023/02/23 13:39:36;;;;;;;8.60;6.70;;;;;;;;;;105375;1248;61768;-63
2023/02/23 13:42:10;;;;;;;10.30;7.10;;;;;;;;;;105268;1250;61553;-64
2023/02/23 13:44:41;;;;;;;10.30;6.90;;;;;;;;;;107004;1248;61682;-64
2023/02/23 13:47:25;;;;;;;8.40;6.50;;;;;;;;;;108989;1248;59569;-65
2023/02/23 13:49:56;;;;;;;8.90;7.00;;;;;;;;;;106265;1247;61638;-63
2023/02/23 13:52:28;;;;;;;7.90;6.60;;;;;;;;;;104956;1262;61690;-63
2023/02/23 13:55:02;;;;;;;8.40;6.50;;;;;;;;;;105840;1250;61709;-64
2023/02/23 13:57:31;;;;;;;9.90;6.40;;;;;;;;;;105493;1247;61692;-63
2023/02/23 13:59:59;;;;;;;12.80;8.10;;;;;;;;;;104927;1260;61709;-65
2023/02/23 14:02:33;;;;;;;8.30;6.90;;;;;;;;;;105465;1254;61708;-63
2023/02/23 14:05:03;;;;;;;11.20;8.10;;;;;;;;;;105162;1250;61682;-64
2023/02/23 14:07:32;;;;;;;8.00;7.00;;;;;;;;;;104757;1251;61798;-66
2023/02/23 14:10:07;;;;;;;9.90;7.50;;;;;;;;;;105280;1260;61845;-67
2023/02/23 14:12:37;;;;;;;11.20;7.80;;;;;;;;;;105316;1264;61160;-65
2023/02/23 14:15:25;;;;;;;10.10;8.40;;;;;;;;;;105479;1253;61428;-62
2023/02/23 14:17:53;;;;;;;;;;;;;;;;;;105407;1252;61695;-61
2023/02/23 14:20:35;;;;;;;10.40;7.50;;;;;;;;;;105459;1253;61599;-63
2023/02/23 14:23:25;;;;;;;10.20;7.60;;;;;;;;;;105011;1249;61705;-64
2023/02/23 14:26:08;;;;;;;9.30;6.70;;;;;;;;;;104806;1254;61621;-67
2023/02/23 14:28:38;;;;;;;10.10;6.80;;;;;;;;;;105015;1262;61719;-61
2023/02/23 14:31:09;;;;;;;8.10;6.50;;;;;;;;;;104960;1250;61747;-62
2023/02/23 14:33:41;;;;;;;9.60;6.60;;;;;;;;;;105255;1253;61737;-61
2023/02/23 14:36:27;;;;;;;6.90;6.00;;;;;;;;;;105241;1253;61590;-65
2023/02/23 14:38:55;;;;;;;8.90;6.20;;;;;;;;;;105016;1250;329623;-65
2023/02/23 14:42:25;;;;;;;7.70;6.20;;;;;;;;;;102049;1293;599823;-66
2023/02/23 14:44:53;;;;;;;9.80;6.80;;;;;;;;;;104472;1264;60278;-64
2023/02/23 14:47:22;;;;;;;11.60;6.80;;;;;;;;;;104436;1264;60295;-68
2023/02/23 14:49:53;;;;;;;14.30;7.20;;;;;;;;;;104300;1260;60184;-68
2023/02/23 14:52:23;;;;;;;10.20;6.60;;;;;;;;;;104215;1264;60217;-69
2023/02/23 14:54:52;;;;;;;9.00;6.50;;;;;;;;;;104120;1264;269227;-67
2023/02/23 14:57:21;;;;;;;11.10;7.50;;;;;;;;;;104038;1258;60430;-66
2023/02/23 14:59:56;;;;;;;10.50;7.80;;;;;;;;;;104563;1257;60344;-65
2023/02/23 15:02:26;;;;;;;12.30;9.30;;;;;;;;;;104697;1262;60254;-66
2023/02/23 15:04:54;;;;;;;10.50;8.40;;;;;;;;;;106080;1259;60170;-66
2023/02/23 15:07:26;;;;;;;10.00;7.20;;;;;;;;;;107873;1257;59498;-67
2023/02/23 15:09:55;;;;;;;8.70;6.50;;;;;;;;;;107918;1257;58878;-67
2023/02/23 15:12:27;;;;;;;12.00;6.50;;;;;;;;;;109108;1247;58847;-67
2023/02/23 15:14:58;;;;;;;9.40;7.00;;;;;;;;;;105793;1249;60919;-66
2023/02/23 15:17:29;;;;;;;11.90;7.60;;;;;;;;;;105423;1254;60837;-66
2023/02/23 15:20:10;;;;;;;12.70;7.50;;;;;;;;;;105335;1258;61033;-68
2023/02/23 15:22:45;;;;;;;9.40;7.30;;;;;;;;;;105169;1248;60813;-68
2023/02/23 15:25:19;;;;;;;10.30;7.40;;;;;;;;;;105539;1247;60852;-66
2023/02/23 15:27:48;;;;;;;17.40;7.80;;;;;;;;;;105423;1252;60907;-65
2023/02/23 15:30:16;;;;;;;10.70;7.30;;;;;;;;;;105728;1247;61334;-67
2023/02/23 15:32:44;;;;;;;8.70;7.00;;;;;;;;;;105577;1247;60959;-64
2023/02/23 15:35:13;;;;;;;12.80;8.80;;;;;;;;;;105513;1247;60872;-65
2023/02/23 15:37:43;;;;;;;16.40;10.40;;;;;;;;;;105669;1251;60628;-64
2023/02/23 15:40:16;;;;;;;20.00;13.20;;;;;;;;;;105529;1250;60927;-66
2023/02/23 15:42:46;;;;;;;23.10;13.70;;;;;;;;;;105575;1250;60881;-66
2023/02/23 15:45:28;;;;;;;23.60;13.70;;;;;;;;;;105598;1247;60889;-67
2023/02/23 15:47:59;;;;;;;16.30;10.00;;;;;;;;;;109085;1246;58951;-69
2023/02/23 15:50:31;;;;;;;17.00;11.00;;;;;;;;;;106545;1250;60828;-68
2023/02/23 15:53:12;;;;;;;;;;;;;;;;;;105564;1253;61089;-67
2023/02/23 15:55:41;;;;;;;14.80;8.90;;;;;;;;;;105658;1247;60663;-65
2023/02/23 15:58:14;;;;;;;14.30;9.00;;;;;;;;;;105786;1246;60883;-68
2023/02/23 16:00:43;;;;;;;14.10;8.80;;;;;;;;;;106046;1250;61276;-65
2023/02/23 16:03:27;;;;;;;11.30;8.70;;;;;;;;;;105651;1251;60770;-65
2023/02/23 16:05:58;;;;;;;9.60;7.80;;;;;;;;;;105586;1246;60786;-61
2023/02/23 16:08:28;;;;;;;10.40;8.40;;;;;;;;;;105962;1247;60786;-65
2023/02/23 16:10:59;;;;;;;13.30;8.90;;;;;;;;;;105590;1246;60892;-65